sensor_id;sensor_type;location;lat;lon;timestamp;temperature;humidity
45311;SHT31;68264;51.540;5.854;2023-11-21T00:06:14;7.4;95.4
45311;SHT31;68264;51.540;5.854;2023-11-21T00:20:13;7.5;96.0
45311;SHT31;68264;51.540;5.854;2023-11-21T00:35:14;7.8;96.0
45311;SHT31;68264;51.540;5.854;2023-11-21T00:50:13;7.8;96.0
45311;SHT31;68264;51.540;5.854;2023-11-21T01:04:12;7.6;95.9
45311;SHT31;68264;51.540;5.854;2023-11-21T01:18:11;7.5;96.2
45311;SHT31;68264;51.540;5.854;2023-11-21T01:32:10;7.6;96.4
45311;SHT31;68264;51.540;5.854;2023-11-21T01:46:09;7.6;96.8
45311;SHT31;68264;51.540;5.854;2023-11-21T02:00:38;7.9;96.8
45311;SHT31;68264;51.540;5.854;2023-11-21T02:14:57;8.0;96.6
45311;SHT31;68264;51.540;5.854;2023-11-21T02:28:56;8.0;96.7
45311;SHT31;68264;51.540;5.854;2023-11-21T02:42:55;7.9;97.1
45311;SHT31;68264;51.540;5.854;2023-11-21T02:56:54;7.9;97.1
45311;SHT31;68264;51.540;5.854;2023-11-21T03:10:53;7.8;96.9
45311;SHT31;68264;51.540;5.854;2023-11-21T03:24:52;7.7;96.9
45311;SHT31;68264;51.540;5.854;2023-11-21T03:38:51;7.7;96.9
45311;SHT31;68264;51.540;5.854;2023-11-21T03:52:50;7.6;96.7
45311;SHT31;68264;51.540;5.854;2023-11-21T04:06:49;7.5;96.6
45311;SHT31;68264;51.540;5.854;2023-11-21T04:20:48;7.5;96.7
45311;SHT31;68264;51.540;5.854;2023-11-21T04:34:47;7.5;96.8
45311;SHT31;68264;51.540;5.854;2023-11-21T04:49:15;7.5;96.8
45311;SHT31;68264;51.540;5.854;2023-11-21T05:03:35;7.4;96.8
45311;SHT31;68264;51.540;5.854;2023-11-21T05:17:34;7.4;96.8
45311;SHT31;68264;51.540;5.854;2023-11-21T05:32:02;7.5;96.7
45311;SHT31;68264;51.540;5.854;2023-11-21T05:46:50;7.4;96.5
45311;SHT31;68264;51.540;5.854;2023-11-21T06:01:09;7.3;96.7
45311;SHT31;68264;51.540;5.854;2023-11-21T06:15:08;7.3;96.7
45311;SHT31;68264;51.540;5.854;2023-11-21T06:29:07;7.4;96.8
45311;SHT31;68264;51.540;5.854;2023-11-21T06:43:06;7.5;96.7
45311;SHT31;68264;51.540;5.854;2023-11-21T06:57:06;7.5;96.3
45311;SHT31;68264;51.540;5.854;2023-11-21T07:12:06;7.6;96.6
45311;SHT31;68264;51.540;5.854;2023-11-21T07:27:34;7.6;96.3
45311;SHT31;68264;51.540;5.854;2023-11-21T07:41:54;7.6;96.5
45311;SHT31;68264;51.540;5.854;2023-11-21T07:56:22;7.7;96.5
45311;SHT31;68264;51.540;5.854;2023-11-21T08:11:10;7.7;96.5
45311;SHT31;68264;51.540;5.854;2023-11-21T08:25:29;7.6;96.5
45311;SHT31;68264;51.540;5.854;2023-11-21T08:39:28;7.7;96.9
45311;SHT31;68264;51.540;5.854;2023-11-21T08:54:29;7.8;97.2
45311;SHT31;68264;51.540;5.854;2023-11-21T09:09:28;8.1;97.3
45311;SHT31;68264;51.540;5.854;2023-11-21T09:23:27;8.3;96.9
45311;SHT31;68264;51.540;5.854;2023-11-21T09:37:26;8.4;97.2
45311;SHT31;68264;51.540;5.854;2023-11-21T09:51:25;8.6;96.8
45311;SHT31;68264;51.540;5.854;2023-11-21T10:05:53;8.9;97.2
45311;SHT31;68264;51.540;5.854;2023-11-21T10:20:13;9.0;97.1
45311;SHT31;68264;51.540;5.854;2023-11-21T10:34:12;9.2;96.8
45311;SHT31;68264;51.540;5.854;2023-11-21T10:48:11;9.4;96.9
45311;SHT31;68264;51.540;5.854;2023-11-21T11:02:10;9.6;96.3
45311;SHT31;68264;51.540;5.854;2023-11-21T11:16:09;9.9;95.5
45311;SHT31;68264;51.540;5.854;2023-11-21T11:30:08;10.2;95.4
45311;SHT31;68264;51.540;5.854;2023-11-21T11:44:36;10.5;94.2
45311;SHT31;68264;51.540;5.854;2023-11-21T12:01:01;10.6;93.8
45311;SHT31;68264;51.540;5.854;2023-11-21T12:17:30;10.7;93.4
45311;SHT31;68264;51.540;5.854;2023-11-21T12:32:18;10.4;92.9
45311;SHT31;68264;51.540;5.854;2023-11-21T12:46:38;10.4;93.4
45311;SHT31;68264;51.540;5.854;2023-11-21T13:01:06;10.7;93.1
45311;SHT31;68264;51.540;5.854;2023-11-21T13:16:26;10.9;92.9
45311;SHT31;68264;51.540;5.854;2023-11-21T13:31:55;11.0;92.2
45311;SHT31;68264;51.540;5.854;2023-11-21T13:47:47;11.1;92.5
45311;SHT31;68264;51.540;5.854;2023-11-21T14:03:17;11.2;92.3
45311;SHT31;68264;51.540;5.854;2023-11-21T14:17:16;11.3;91.5
45311;SHT31;68264;51.540;5.854;2023-11-21T14:31:15;11.3;91.5
45311;SHT31;68264;51.540;5.854;2023-11-21T14:45:14;11.0;91.7
45311;SHT31;68264;51.540;5.854;2023-11-21T14:59:13;10.8;92.2
45311;SHT31;68264;51.540;5.854;2023-11-21T15:13:12;10.7;91.9
45311;SHT31;68264;51.540;5.854;2023-11-21T15:28:44;10.7;91.8
45311;SHT31;68264;51.540;5.854;2023-11-21T15:44:14;10.5;91.8
45311;SHT31;68264;51.540;5.854;2023-11-21T15:59:15;10.5;91.7
45311;SHT31;68264;51.540;5.854;2023-11-21T16:14:14;10.3;91.0
45311;SHT31;68264;51.540;5.854;2023-11-21T16:28:13;10.0;90.8
45311;SHT31;68264;51.540;5.854;2023-11-21T16:42:12;9.9;91.0
45311;SHT31;68264;51.540;5.854;2023-11-21T16:56:11;9.6;91.2
45311;SHT31;68264;51.540;5.854;2023-11-21T17:10:10;9.1;90.2
45311;SHT31;68264;51.540;5.854;2023-11-21T17:24:10;8.9;90.2
45311;SHT31;68264;51.540;5.854;2023-11-21T17:39:42;8.8;89.4
45311;SHT31;68264;51.540;5.854;2023-11-21T17:55:12;8.7;88.2
45311;SHT31;68264;51.540;5.854;2023-11-21T18:09:11;8.4;88.1
45311;SHT31;68264;51.540;5.854;2023-11-21T18:23:10;8.0;88.1
45311;SHT31;68264;51.540;5.854;2023-11-21T18:37:09;7.5;88.4
45311;SHT31;68264;51.540;5.854;2023-11-21T18:51:08;7.1;88.7
45311;SHT31;68264;51.540;5.854;2023-11-21T19:05:36;6.8;89.4
45311;SHT31;68264;51.540;5.854;2023-11-21T19:21:28;6.6;90.0
45311;SHT31;68264;51.540;5.854;2023-11-21T19:39:35;6.4;90.0
45311;SHT31;68264;51.540;5.854;2023-11-21T19:56:35;6.1;90.4
45311;SHT31;68264;51.540;5.854;2023-11-21T20:10:54;5.8;90.5
45311;SHT31;68264;51.540;5.854;2023-11-21T20:25:22;5.5;90.5
45311;SHT31;68264;51.540;5.854;2023-11-21T20:39:42;5.5;91.5
45311;SHT31;68264;51.540;5.854;2023-11-21T20:53:41;5.4;91.8
45311;SHT31;68264;51.540;5.854;2023-11-21T21:07:40;5.2;92.1
45311;SHT31;68264;51.540;5.854;2023-11-21T21:23:12;5.2;92.5
45311;SHT31;68264;51.540;5.854;2023-11-21T21:38:42;5.0;92.3
45311;SHT31;68264;51.540;5.854;2023-11-21T21:52:41;4.8;92.7
45311;SHT31;68264;51.540;5.854;2023-11-21T22:06:40;4.6;92.5
45311;SHT31;68264;51.540;5.854;2023-11-21T22:21:08;4.7;93.6
45311;SHT31;68264;51.540;5.854;2023-11-21T22:35:27;4.7;93.6
45311;SHT31;68264;51.540;5.854;2023-11-21T22:49:26;4.8;94.2
45311;SHT31;68264;51.540;5.854;2023-11-21T23:03:25;4.7;93.7
45311;SHT31;68264;51.540;5.854;2023-11-21T23:18:58;4.4;93.2
45311;SHT31;68264;51.540;5.854;2023-11-21T23:34:57;4.0;92.5
45311;SHT31;68264;51.540;5.854;2023-11-21T23:49:45;3.9;93.2
